TimeCST,TemperatureF,Dew PointF,Humidity,Sea Level PressureIn,VisibilityMPH,Wind Direction,Wind SpeedMPH,Gust SpeedMPH,PrecipitationIn,Events,Conditions,WindDirDegrees,DateUTC
12:15 AM,32.0,15.8,51,30.13,10.0,SE,6.9,-,N/A,,Clear,140,2013-02-19 06:15:00
12:35 AM,30.2,17.6,60,30.14,10.0,SSE,6.9,-,N/A,,Clear,150,2013-02-19 06:35:00
12:55 AM,32.0,15.8,51,30.13,10.0,SE,5.8,-,N/A,,Clear,130,2013-02-19 06:55:00
1:15 AM,32.0,15.8,51,30.14,10.0,SE,5.8,-,N/A,,Clear,140,2013-02-19 07:15:00
1:35 AM,32.0,15.8,51,30.14,10.0,SSE,6.9,-,N/A,,Clear,150,2013-02-19 07:35:00
1:55 AM,32.0,15.8,51,30.14,10.0,SE,5.8,-,N/A,,Clear,140,2013-02-19 07:55:00
2:15 AM,32.0,15.8,51,30.14,10.0,SE,6.9,-,N/A,,Clear,140,2013-02-19 08:15:00
2:35 AM,32.0,15.8,51,30.15,10.0,SSE,6.9,-,N/A,,Clear,160,2013-02-19 08:35:00
2:55 AM,30.2,15.8,55,30.14,10.0,SSE,6.9,-,N/A,,Clear,150,2013-02-19 08:55:00
3:15 AM,28.4,15.8,59,30.14,10.0,SSE,5.8,-,N/A,,Clear,150,2013-02-19 09:15:00
3:35 AM,26.6,15.8,64,30.14,10.0,SSE,6.9,-,N/A,,Clear,160,2013-02-19 09:35:00
3:55 AM,26.6,15.8,64,30.14,10.0,South,6.9,-,N/A,,Clear,170,2013-02-19 09:55:00
4:15 AM,24.8,15.8,69,30.14,10.0,SSE,6.9,-,N/A,,Clear,160,2013-02-19 10:15:00
4:35 AM,26.6,15.8,64,30.14,10.0,South,8.1,-,N/A,,Clear,170,2013-02-19 10:35:00
4:55 AM,26.6,15.8,64,30.16,10.0,South,9.2,-,N/A,,Clear,170,2013-02-19 10:55:00
5:15 AM,26.6,15.8,64,30.16,10.0,South,9.2,-,N/A,,Clear,180,2013-02-19 11:15:00
5:55 AM,23.0,15.8,74,30.18,10.0,South,10.4,-,N/A,,Clear,180,2013-02-19 11:55:00
6:15 AM,24.8,15.8,69,30.18,10.0,South,8.1,-,N/A,,Clear,170,2013-02-19 12:15:00
6:35 AM,23.0,15.8,74,30.18,10.0,South,10.4,-,N/A,,Clear,170,2013-02-19 12:35:00
6:55 AM,23.0,17.6,80,30.19,10.0,South,9.2,-,N/A,,Clear,170,2013-02-19 12:55:00
7:15 AM,26.6,17.6,69,30.19,10.0,South,10.4,-,N/A,,Clear,170,2013-02-19 13:15:00
7:35 AM,26.6,17.6,69,30.19,10.0,South,10.4,-,N/A,,Clear,170,2013-02-19 13:35:00
7:55 AM,28.4,19.4,69,30.21,10.0,SSE,9.2,-,N/A,,Clear,160,2013-02-19 13:55:00
8:15 AM,30.2,21.2,69,30.21,10.0,SSE,9.2,-,N/A,,Clear,150,2013-02-19 14:15:00
8:35 AM,32.0,23.0,69,30.21,10.0,SSE,11.5,-,N/A,,Clear,150,2013-02-19 14:35:00
8:55 AM,35.6,21.2,56,30.21,10.0,SSE,12.7,-,N/A,,Clear,160,2013-02-19 14:55:00
9:15 AM,35.6,21.2,56,30.21,10.0,SSE,12.7,-,N/A,,Clear,150,2013-02-19 15:15:00
9:35 AM,35.6,21.2,56,30.21,10.0,SSE,13.8,-,N/A,,Clear,150,2013-02-19 15:35:00
9:55 AM,37.4,21.2,52,30.21,10.0,SSE,16.1,19.6,N/A,,Clear,150,2013-02-19 15:55:00
10:15 AM,41.0,19.4,42,30.21,10.0,South,15.0,-,N/A,,Clear,170,2013-02-19 16:15:00
10:35 AM,41.0,21.2,45,30.21,10.0,SSE,18.4,-,N/A,,Clear,160,2013-02-19 16:35:00
10:55 AM,42.8,21.2,42,30.22,10.0,South,18.4,23.0,N/A,,Clear,170,2013-02-19 16:55:00
11:15 AM,44.6,23.0,43,30.21,10.0,South,17.3,23.0,N/A,,Clear,170,2013-02-19 17:15:00
11:35 AM,44.6,21.2,39,30.20,10.0,South,19.6,25.3,N/A,,Clear,170,2013-02-19 17:35:00
11:55 AM,44.6,21.2,39,30.19,10.0,SSE,19.6,23.0,N/A,,Clear,160,2013-02-19 17:55:00
12:15 PM,46.4,21.2,37,30.19,10.0,South,19.6,24.2,N/A,,Clear,170,2013-02-19 18:15:00
12:35 PM,46.4,21.2,37,30.18,10.0,South,19.6,25.3,N/A,,Clear,170,2013-02-19 18:35:00
12:55 PM,46.4,21.2,37,30.17,10.0,SSE,18.4,-,N/A,,Clear,160,2013-02-19 18:55:00
1:15 PM,46.4,21.2,37,30.15,10.0,SSE,18.4,24.2,N/A,,Clear,160,2013-02-19 19:15:00
1:35 PM,50.0,21.2,32,30.13,10.0,SSE,18.4,25.3,N/A,,Clear,160,2013-02-19 19:35:00
1:55 PM,50.0,21.2,32,30.12,10.0,SSE,17.3,25.3,N/A,,Clear,160,2013-02-19 19:55:00
2:15 PM,50.0,19.4,30,30.10,10.0,South,19.6,25.3,N/A,,Clear,170,2013-02-19 20:15:00
2:35 PM,50.0,19.4,30,30.08,10.0,SSE,21.9,26.5,N/A,,Clear,160,2013-02-19 20:35:00
2:55 PM,50.0,19.4,30,30.07,10.0,SSE,18.4,27.6,N/A,,Clear,160,2013-02-19 20:55:00
3:15 PM,50.0,19.4,30,30.07,10.0,SSE,21.9,28.8,N/A,,Clear,160,2013-02-19 21:15:00
3:35 PM,50.0,21.2,32,30.06,10.0,SSE,19.6,31.1,N/A,,Clear,150,2013-02-19 21:35:00
3:55 PM,48.2,19.4,32,30.05,10.0,SSE,21.9,29.9,N/A,,Clear,150,2013-02-19 21:55:00
4:15 PM,48.2,21.2,34,30.05,10.0,SSE,19.6,27.6,N/A,,Clear,150,2013-02-19 22:15:00
4:35 PM,48.2,19.4,32,30.05,10.0,SE,24.2,29.9,N/A,,Clear,140,2013-02-19 22:35:00
4:55 PM,46.4,19.4,34,30.04,10.0,SSE,20.7,27.6,N/A,,Clear,150,2013-02-19 22:55:00
5:15 PM,44.6,21.2,39,30.03,10.0,SSE,20.7,28.8,N/A,,Clear,150,2013-02-19 23:15:00
6:35 PM,42.8,19.4,39,30.04,10.0,SSE,19.6,23.0,N/A,,Clear,150,2013-02-20 00:35:00
6:55 PM,42.8,17.6,36,30.05,10.0,SSE,17.3,21.9,N/A,,Clear,150,2013-02-20 00:55:00
7:35 PM,41.0,17.6,39,30.05,10.0,SSE,15.0,-,N/A,,Clear,150,2013-02-20 01:35:00
7:55 PM,41.0,17.6,39,30.05,10.0,SSE,18.4,25.3,N/A,,Clear,150,2013-02-20 01:55:00
8:15 PM,41.0,19.4,42,30.03,10.0,SE,21.9,28.8,N/A,,Clear,140,2013-02-20 02:15:00
8:35 PM,41.0,19.4,42,30.05,10.0,SE,17.3,23.0,N/A,,Clear,140,2013-02-20 02:35:00
8:55 PM,41.0,19.4,42,30.05,10.0,SE,19.6,25.3,N/A,,Clear,140,2013-02-20 02:55:00
9:15 PM,41.0,19.4,42,30.03,10.0,SE,20.7,27.6,N/A,,Clear,140,2013-02-20 03:15:00
9:35 PM,39.2,19.4,45,30.03,10.0,SE,21.9,27.6,N/A,,Clear,140,2013-02-20 03:35:00
9:55 PM,39.2,21.2,49,30.01,10.0,SE,21.9,27.6,N/A,,Scattered Clouds,140,2013-02-20 03:55:00
10:15 PM,39.2,19.4,45,30.01,10.0,SE,23.0,31.1,N/A,,Overcast,140,2013-02-20 04:15:00
10:35 PM,41.0,19.4,42,30.01,10.0,SE,26.5,31.1,N/A,,Overcast,140,2013-02-20 04:35:00
10:55 PM,39.2,19.4,45,30.00,10.0,SSE,23.0,29.9,N/A,,Overcast,150,2013-02-20 04:55:00
11:15 PM,39.2,19.4,45,30.00,10.0,SSE,25.3,32.2,N/A,,Overcast,150,2013-02-20 05:15:00
11:35 PM,41.0,19.4,42,29.99,10.0,SSE,25.3,31.1,N/A,,Overcast,150,2013-02-20 05:35:00